Time;durP1;ratioP1;P1;durP2;ratioP2;P2;SDS_P1;SDS_P2;PMS_P1;PMS_P2;Temp;Humidity;BMP_temperature;BMP_pressure;BME280_temperature;BME280_humidity;BME280_pressure;Samples;Min_cycle;Max_cycle;Signal;HPM_P1;HPM_P2
2022/06/21 00:00:23;;;;;;;12.70;4.47;;;;;;;11.04;92.63;100118.58;1702055;80;26159;-66
2022/06/21 00:02:54;;;;;;;6.45;4.53;;;;;;;10.99;92.53;100132.23;1692559;82;98896;-66
2022/06/21 00:05:28;;;;;;;13.68;4.95;;;;;;;10.96;92.69;100138.23;1700925;80;28242;-66
2022/06/21 00:07:56;;;;;;;7.50;5.08;;;;;;;10.92;92.75;100132.64;1700181;81;99005;-65
2022/06/21 00:10:23;;;;;;;13.50;4.95;;;;;;;10.87;92.83;100138.72;1700152;80;27486;-66
2022/06/21 00:12:50;;;;;;;9.00;5.22;;;;;;;10.82;92.81;100129.58;1695400;80;25979;-66
2022/06/21 00:15:17;;;;;;;12.85;5.50;;;;;;;10.78;92.76;100148.11;1695294;80;98758;-66
2022/06/21 00:17:48;;;;;;;16.35;4.62;;;;;;;10.76;92.83;100154.50;1708902;81;26066;-66
2022/06/21 00:20:20;;;;;;;11.48;5.15;;;;;;;10.72;92.88;100152.45;1692920;82;99011;-65
2022/06/21 00:22:51;;;;;;;15.10;5.45;;;;;;;10.67;92.80;100158.05;1693719;82;27468;-68
2022/06/21 00:25:24;;;;;;;11.70;4.90;;;;;;;10.66;93.04;100160.33;1695405;82;28810;-65
2022/06/21 00:27:53;;;;;;;9.98;6.08;;;;;;;10.61;92.97;100162.86;1699027;81;98906;-65
2022/06/21 00:30:21;;;;;;;12.70;4.55;;;;;;;10.58;92.97;100164.34;1671745;82;26526;-66
2022/06/21 00:32:51;;;;;;;12.60;5.87;;;;;;;10.54;93.01;100156.94;1690731;82;98922;-66
2022/06/21 00:35:21;;;;;;;13.40;5.83;;;;;;;10.52;92.95;100158.83;1704316;80;26791;-66
2022/06/21 00:37:50;;;;;;;9.28;5.05;;;;;;;10.50;92.92;100156.70;1673682;82;25976;-66
2022/06/21 00:40:29;;;;;;;18.95;5.80;;;;;;;10.48;92.89;100158.59;1699720;81;98504;-65
2022/06/21 00:43:03;;;;;;;10.90;5.45;;;;;;;10.47;92.96;100169.38;1696594;81;26015;-65
2022/06/21 00:45:42;;;;;;;10.80;5.40;;;;;;;10.45;93.00;100176.16;1697092;81;98852;-66
2022/06/21 00:48:38;;;;;;;12.73;5.92;;;;;;;10.46;93.03;100164.50;1688907;80;27488;-66
2022/06/21 00:51:19;;;;;;;12.63;6.10;;;;;;;10.46;93.13;100163.16;1689883;82;98789;-66
2022/06/21 00:53:53;;;;;;;12.65;5.92;;;;;;;10.47;93.07;100160.88;1705817;81;25872;-66
2022/06/21 00:56:36;;;;;;;8.65;5.37;;;;;;;10.48;93.10;100171.98;1691353;80;99084;-65
2022/06/21 00:59:20;;;;;;;13.40;6.55;;;;;;;10.49;93.24;100171.52;1671743;82;26012;-66
2022/06/21 01:01:48;;;;;;;13.32;5.97;;;;;;;10.49;93.29;100174.20;1691424;81;28281;-68
2022/06/21 01:04:28;;;;;;;13.10;6.05;;;;;;;10.50;93.42;100176.80;1689204;81;98720;-66
2022/06/21 01:06:58;;;;;;;15.47;6.27;;;;;;;10.50;93.42;100168.75;1697186;81;26979;-64
2022/06/21 01:09:29;;;;;;;13.20;6.35;;;;;;;10.50;93.52;100169.23;1687570;82;98784;-67
2022/06/21 01:12:10;;;;;;;10.50;5.65;;;;;;;10.51;93.47;100177.19;1693939;81;26064;-65
2022/06/21 01:14:41;;;;;;;18.25;6.47;;;;;;;10.50;93.67;100162.06;1697852;81;99086;-65
2022/06/21 01:17:11;;;;;;;10.80;5.62;;;;;;;10.51;93.61;100156.23;1676889;83;25881;-67
2022/06/21 01:20:08;;;;;;;9.25;5.30;;;;;;;10.48;93.52;100151.89;1696519;82;26702;-66
2022/06/21 01:23:15;;;;;;;9.93;5.65;;;;;;;10.47;93.56;100164.89;1717324;80;100370;-66
2022/06/21 01:26:20;;;;;;;7.90;5.92;;;;;;;10.45;93.64;100155.20;1688297;82;25833;-66
2022/06/21 01:28:49;;;;;;;14.83;5.67;;;;;;;10.43;93.78;100154.41;1697782;82;98561;-66
2022/06/21 01:31:16;;;;;;;9.73;5.97;;;;;;;10.39;93.75;100147.03;1686663;81;26436;-65
2022/06/21 01:33:43;;;;;;;18.57;6.83;;;;;;;10.42;93.66;100156.22;1693586;81;98673;-65
2022/06/21 01:36:23;;;;;;;8.80;6.33;;;;;;;10.45;93.61;100158.75;1696992;81;26083;-65
2022/06/21 01:39:00;;;;;;;13.83;6.10;;;;;;;10.43;93.67;100156.61;1686509;81;99033;-65
2022/06/21 01:41:34;;;;;;;13.95;6.30;;;;;;;10.42;93.59;100154.88;1669981;82;28372;-66
2022/06/21 01:44:05;;;;;;;13.48;6.40;;;;;;;10.42;93.61;100148.19;1691449;82;25901;-65
2022/06/21 01:46:32;;;;;;;9.40;5.30;;;;;;;10.41;93.64;100139.75;1688555;82;99135;-66
2022/06/21 01:49:06;;;;;;;13.18;6.37;;;;;;;10.40;93.61;100132.19;1691619;82;28199;-65
2022/06/21 01:51:44;;;;;;;12.10;5.70;;;;;;;10.39;93.65;100132.30;1687265;82;99174;-65
2022/06/21 01:54:17;;;;;;;7.92;5.37;;;;;;;10.37;93.71;100140.88;1688026;81;28518;-68
2022/06/21 01:56:46;;;;;;;11.00;6.10;;;;;;;10.36;93.81;100133.79;1681521;82;99450;-67
2022/06/21 01:59:19;;;;;;;12.85;6.47;;;;;;;10.33;93.83;100140.17;1697237;81;25699;-68
2022/06/21 02:02:03;;;;;;;11.15;6.28;;;;;;;10.30;93.79;100137.64;1661886;83;26035;-67
2022/06/21 02:04:38;;;;;;;12.15;5.95;;;;;;;10.27;93.66;100139.14;1696770;82;99030;-65
2022/06/21 02:07:09;;;;;;;9.60;5.67;;;;;;;10.26;93.60;100146.78;1695284;81;27484;-65
2022/06/21 02:09:43;;;;;;;10.83;5.73;;;;;;;10.21;93.60;100138.11;1696610;80;98854;-66
2022/06/21 02:12:12;;;;;;;9.10;5.28;;;;;;;10.19;93.54;100147.12;1691655;82;25696;-67
2022/06/21 02:14:49;;;;;;;13.03;6.37;;;;;;;10.15;93.53;100147.75;1693774;82;99044;-67
2022/06/21 02:17:27;;;;;;;19.15;5.85;;;;;;;10.09;93.46;100134.66;1694839;81;25713;-65
2022/06/21 02:20:01;;;;;;;10.23;6.47;;;;;;;10.07;93.38;100141.91;1694748;82;28030;-66
2022/06/21 02:22:31;;;;;;;8.90;5.72;;;;;;;10.03;93.38;100135.83;1699760;82;98971;-65
2022/06/21 02:25:00;;;;;;;14.07;5.78;;;;;;;10.01;93.43;100139.53;1693978;82;25845;-65
2022/06/21 02:27:33;;;;;;;9.73;5.87;;;;;;;9.97;93.53;100137.47;1692328;82;99068;-67
2022/06/21 02:30:04;;;;;;;9.95;6.10;;;;;;;9.95;93.62;100134.47;1695644;82;25861;-65
2022/06/21 02:32:39;;;;;;;9.58;6.67;;;;;;;9.91;93.65;100123.05;1685911;82;98825;-65
2022/06/21 02:35:19;;;;;;;9.20;6.25;;;;;;;9.89;93.76;100126.74;1690779;81;25862;-65
2022/06/21 02:37:48;;;;;;;10.30;5.75;;;;;;;9.86;93.74;100131.77;1703034;81;25839;-66
2022/06/21 02:40:23;;;;;;;15.68;6.53;;;;;;;9.83;93.68;100129.24;1680967;83;98793;-66
2022/06/21 02:42:54;;;;;;;14.83;6.45;;;;;;;9.81;93.73;100133.80;1691397;82;26563;-65
2022/06/21 02:45:31;;;;;;;9.55;6.03;;;;;;;9.78;93.75;100129.07;1694715;81;98756;-65
2022/06/21 02:48:02;;;;;;;10.48;5.50;;;;;;;9.75;93.87;100132.77;1690076;81;25843;-65
2022/06/21 02:50:36;;;;;;;;;;;;;;;9.73;93.90;100140.86;1691134;82;99162;-65
2022/06/21 02:53:19;;;;;;;9.93;6.20;;;;;;;9.70;93.92;100147.70;1695700;81;26034;-65
2022/06/21 02:55:57;;;;;;;11.83;5.60;;;;;;;9.67;93.94;100146.98;1692446;81;25754;-65
2022/06/21 02:58:35;;;;;;;10.23;5.90;;;;;;;9.65;94.00;100149.73;1701023;82;98743;-66
2022/06/21 03:01:06;;;;;;;7.50;5.80;;;;;;;9.65;94.01;100139.50;1696684;82;25747;-65
2022/06/21 03:03:33;;;;;;;20.85;5.95;;;;;;;9.63;94.19;100141.38;1681397;82;98554;-66
2022/06/21 03:06:03;;;;;;;10.45;6.53;;;;;;;9.61;94.32;100151.28;1691293;82;26525;-66
2022/06/21 03:08:32;;;;;;;11.13;5.77;;;;;;;9.61;94.39;100144.59;1685362;82;98857;-67
2022/06/21 03:10:58;;;;;;;13.10;6.65;;;;;;;9.58;94.29;100155.44;1697065;81;28392;-66
2022/06/21 03:13:30;;;;;;;13.88;6.37;;;;;;;9.57;94.31;100158.59;1718997;80;25850;-65
2022/06/21 03:16:01;;;;;;;7.85;5.55;;;;;;;9.58;94.32;100166.14;1702953;81;98703;-65
2022/06/21 03:18:33;;;;;;;7.22;5.70;;;;;;;9.60;94.47;100176.30;1700111;80;26833;-66
2022/06/21 03:21:06;;;;;;;8.98;5.72;;;;;;;9.63;94.45;100166.80;1695908;82;98706;-65
2022/06/21 03:23:33;;;;;;;18.77;6.15;;;;;;;9.68;94.42;100188.85;1691569;82;28665;-65
2022/06/21 03:26:03;;;;;;;7.35;5.47;;;;;;;9.74;94.47;100181.88;1689037;82;25941;-65
2022/06/21 03:28:37;;;;;;;17.82;6.25;;;;;;;9.76;94.51;100168.82;1695490;80;98722;-66
2022/06/21 03:31:26;;;;;;;9.90;5.80;;;;;;;9.76;94.52;100158.59;1706717;80;25936;-66
2022/06/21 03:33:56;;;;;;;12.28;6.15;;;;;;;9.83;94.54;100172.07;1691056;81;98555;-67
2022/06/21 03:36:25;;;;;;;12.33;5.80;;;;;;;9.86;94.52;100176.41;1689000;82;28366;-66
2022/06/21 03:39:05;;;;;;;10.60;6.55;;;;;;;9.90;94.54;100175.33;1691407;82;98924;-65
2022/06/21 03:41:44;;;;;;;7.20;5.75;;;;;;;9.91;94.47;100176.59;1695282;81;25851;-65
2022/06/21 03:44:35;;;;;;;9.03;6.60;;;;;;;9.93;94.57;100187.22;1688281;82;26097;-67
2022/06/21 03:47:15;;;;;;;8.03;5.97;;;;;;;9.95;94.54;100174.16;1695351;82;98422;-66
2022/06/21 03:53:21;;;;;;;9.43;6.22;;;;;;;10.02;94.48;100169.37;1701521;80;98777;-65
2022/06/21 03:56:06;;;;;;;6.75;6.05;;;;;;;10.05;94.43;100158.52;1699485;81;25765;-65
2022/06/21 03:58:50;;;;;;;10.15;6.35;;;;;;;10.09;94.55;100160.10;1696800;80;99073;-66
2022/06/21 04:01:24;;;;;;;9.90;6.85;;;;;;;10.11;94.61;100160.03;1694516;81;25763;-66
2022/06/21 04:04:08;;;;;;;13.28;6.45;;;;;;;10.15;94.68;100163.81;1695791;82;98708;-65
2022/06/21 04:06:52;;;;;;;9.90;6.47;;;;;;;10.16;94.85;100160.67;1691457;82;25806;-66
2022/06/21 04:09:44;;;;;;;10.60;8.05;;;;;;;10.17;94.78;100165.95;1689050;82;98975;-65
2022/06/21 04:12:19;;;;;;;11.22;8.03;;;;;;;10.21;94.72;100164.02;1692786;82;26124;-66
2022/06/21 04:14:50;;;;;;;15.25;8.38;;;;;;;10.26;94.70;100184.28;1686645;82;26715;-67
2022/06/21 04:17:36;;;;;;;10.88;6.67;;;;;;;10.27;94.70;100174.44;1702706;80;98680;-66
2022/06/21 04:20:14;;;;;;;12.88;7.40;;;;;;;10.28;94.79;100175.70;1680291;82;27176;-66
2022/06/21 04:22:54;;;;;;;10.95;6.85;;;;;;;10.29;94.72;100175.22;1688131;82;98828;-65
2022/06/21 04:25:39;;;;;;;21.55;7.85;;;;;;;10.32;94.75;100183.11;1703229;81;26089;-67
2022/06/21 04:28:16;;;;;;;9.35;7.08;;;;;;;10.33;94.77;100174.99;1687238;82;98845;-65
2022/06/21 04:31:15;;;;;;;9.35;6.55;;;;;;;10.35;94.73;100185.16;1691892;82;28232;-67
2022/06/21 04:33:52;;;;;;;10.23;7.30;;;;;;;10.37;94.77;100175.71;1699427;82;98691;-67
2022/06/21 04:36:35;;;;;;;12.78;7.90;;;;;;;10.39;94.84;100180.52;1697435;82;26372;-66
2022/06/21 04:39:30;;;;;;;14.78;8.08;;;;;;;10.39;94.78;100189.42;1700559;82;98941;-65
2022/06/21 04:42:07;;;;;;;17.65;8.28;;;;;;;10.41;94.74;100186.64;1695183;82;25852;-66
2022/06/21 04:45:03;;;;;;;13.18;8.48;;;;;;;10.42;94.78;100188.38;1702836;80;27458;-66
2022/06/21 04:47:42;;;;;;;11.50;8.45;;;;;;;10.42;94.92;100183.02;1696049;81;98800;-66
2022/06/21 04:50:48;;;;;;;11.18;7.97;;;;;;;10.42;94.92;100185.69;1691925;82;25775;-67
2022/06/21 04:53:40;;;;;;;20.77;9.18;;;;;;;10.40;94.97;100194.31;1699847;81;99047;-68
2022/06/21 04:56:23;;;;;;;8.78;7.47;;;;;;;10.38;95.04;100180.13;1703915;80;25691;-66
2022/06/21 04:58:52;;;;;;;12.88;8.35;;;;;;;10.39;95.12;100197.94;1696635;82;98810;-66
2022/06/21 05:01:32;;;;;;;13.55;8.78;;;;;;;10.38;95.15;100189.50;1707933;81;25774;-68
2022/06/21 05:04:04;;;;;;;16.45;9.95;;;;;;;10.44;95.27;100186.95;1705248;80;98774;-65
2022/06/21 05:06:30;;;;;;;12.33;9.00;;;;;;;10.47;95.29;100197.05;1692097;80;26102;-68
2022/06/21 05:08:57;;;;;;;16.80;9.48;;;;;;;10.52;95.36;100190.98;1701276;81;25839;-66
2022/06/21 05:11:24;;;;;;;16.40;9.38;;;;;;;10.56;95.28;100203.28;1699406;81;98620;-66
2022/06/21 05:13:54;;;;;;;15.53;8.53;;;;;;;10.56;95.25;100194.38;1708803;82;25795;-66
2022/06/21 05:16:37;;;;;;;14.80;8.13;;;;;;;10.59;95.21;100188.86;1692924;82;99008;-66
2022/06/21 05:19:19;;;;;;;13.22;8.38;;;;;;;10.62;95.25;100200.30;1701542;82;26389;-68
2022/06/21 05:22:07;;;;;;;10.65;8.48;;;;;;;10.65;95.41;100199.27;1702213;80;99558;-65
2022/06/21 05:24:35;;;;;;;12.03;7.65;;;;;;;10.67;95.52;100210.31;1693478;80;27511;-67
2022/06/21 05:27:25;;;;;;;14.28;8.73;;;;;;;10.78;95.68;100203.06;1700455;80;25857;-66
2022/06/21 05:30:03;;;;;;;10.15;7.00;;;;;;;10.82;95.65;100220.73;1710649;81;25820;-66
2022/06/21 05:32:34;;;;;;;10.60;7.65;;;;;;;10.88;95.66;100218.20;1697599;80;26539;-68
2022/06/21 05:35:06;;;;;;;9.13;6.10;;;;;;;10.94;95.70;100221.91;1668422;82;98865;-68
2022/06/21 05:37:37;;;;;;;13.48;7.60;;;;;;;11.01;95.87;100216.16;1689287;82;25803;-66
2022/06/21 05:40:21;;;;;;;14.40;7.78;;;;;;;11.07;95.89;100223.02;1683699;82;99029;-67
2022/06/21 05:42:47;;;;;;;11.18;7.33;;;;;;;11.13;95.98;100214.65;1701520;81;25351;-66
2022/06/21 05:45:16;;;;;;;11.90;7.85;;;;;;;11.12;95.74;100211.57;1706595;80;26145;-66
2022/06/21 05:47:59;;;;;;;12.68;6.58;;;;;;;11.14;95.65;100208.33;1701937;80;98876;-66
2022/06/21 05:50:30;;;;;;;14.10;7.10;;;;;;;11.16;95.49;100219.85;1718076;80;29542;-67
2022/06/21 05:53:03;;;;;;;17.37;7.00;;;;;;;11.16;95.46;100231.92;1719486;80;98883;-67
2022/06/21 05:55:37;;;;;;;8.15;6.53;;;;;;;11.15;95.50;100239.58;1719666;80;26437;-66
2022/06/21 05:58:21;;;;;;;11.97;7.78;;;;;;;11.19;95.52;100237.59;1713914;80;98906;-67
2022/06/21 06:01:14;;;;;;;12.55;7.33;;;;;;;11.22;95.50;100240.98;1720102;80;25906;-66
2022/06/21 06:04:04;;;;;;;9.18;6.75;;;;;;;11.28;95.57;100228.59;1714876;80;99151;-65
2022/06/21 06:06:34;;;;;;;11.88;7.83;;;;;;;11.33;95.62;100246.66;1716261;80;26568;-67
2022/06/21 06:09:25;;;;;;;12.55;7.35;;;;;;;11.38;95.59;100245.08;1715041;80;25840;-65
2022/06/21 06:12:14;;;;;;;18.77;7.62;;;;;;;11.41;95.52;100241.36;1710767;80;99140;-66
2022/06/21 06:14:46;;;;;;;14.90;8.00;;;;;;;11.47;95.45;100238.35;1717047;80;26469;-68
2022/06/21 06:17:33;;;;;;;13.48;7.15;;;;;;;11.55;95.42;100250.41;1716510;80;97998;-66
2022/06/21 06:20:13;;;;;;;9.73;6.58;;;;;;;11.59;95.33;100260.51;1711827;80;26404;-67
2022/06/21 06:22:47;;;;;;;11.37;6.50;;;;;;;11.68;95.28;100244.77;1725402;80;98617;-67
2022/06/21 06:25:30;;;;;;;9.20;6.30;;;;;;;11.78;95.29;100249.67;1710957;80;26653;-66
2022/06/21 06:28:07;;;;;;;6.20;4.37;;;;;;;11.89;95.37;100246.80;1715499;80;99341;-66
2022/06/21 06:30:39;;;;;;;7.53;5.70;;;;;;;12.05;95.52;100242.78;1719514;80;28731;-66
2022/06/21 06:33:38;;;;;;;5.90;4.00;;;;;;;12.19;95.69;100248.25;1715889;80;26298;-66
2022/06/21 06:36:10;;;;;;;3.72;2.70;;;;;;;12.35;95.65;100248.25;1715987;80;98587;-67
2022/06/21 06:38:37;;;;;;;5.55;3.35;;;;;;;12.41;95.23;100238.50;1720853;80;26309;-66
2022/06/21 06:41:32;;;;;;;4.87;3.37;;;;;;;12.42;94.55;100249.64;1716461;80;98587;-65
2022/06/21 06:44:14;;;;;;;8.58;3.65;;;;;;;12.47;93.91;100246.69;1725258;80;26917;-66
2022/06/21 06:46:47;;;;;;;10.13;3.60;;;;;;;12.54;93.51;100241.34;1717377;81;98882;-66
2022/06/21 06:49:25;;;;;;;8.13;4.05;;;;;;;12.65;93.23;100240.24;1730813;81;25781;-66
2022/06/21 06:52:03;;;;;;;14.73;4.67;;;;;;;12.66;92.98;100252.26;1701507;80;99052;-66
2022/06/21 06:55:27;;;;;;;6.87;3.08;;;;;;;12.76;92.73;100249.03;1718100;80;25876;-66
2022/06/21 06:58:01;;;;;;;8.13;4.67;;;;;;;12.80;92.34;100254.62;1715126;80;98952;-65
2022/06/21 07:00:46;;;;;;;9.85;4.37;;;;;;;12.86;92.31;100268.58;1719513;80;25774;-66
2022/06/21 07:03:36;;;;;;;8.00;4.05;;;;;;;12.98;92.43;100262.47;1714320;80;25724;-66
2022/06/21 07:06:23;;;;;;;11.65;4.70;;;;;;;13.13;92.43;100267.38;1716823;81;98618;-65
2022/06/21 07:09:03;;;;;;;7.28;3.00;;;;;;;13.22;92.13;100270.91;1718526;80;25806;-66
2022/06/21 07:11:44;;;;;;;6.22;3.52;;;;;;;13.33;92.14;100279.67;1710815;80;98730;-66
2022/06/21 07:14:21;;;;;;;5.72;3.22;;;;;;;13.43;92.07;100271.91;1716070;80;33247;-65
2022/06/21 07:17:17;;;;;;;5.08;2.85;;;;;;;13.49;91.91;100275.09;1723750;80;99068;-65
2022/06/21 07:19:45;;;;;;;9.60;3.35;;;;;;;13.52;91.53;100274.91;1718170;80;26153;-64
2022/06/21 07:22:24;;;;;;;6.62;3.98;;;;;;;13.57;91.32;100274.14;1718317;80;98807;-64
2022/06/21 07:25:07;;;;;;;3.67;2.83;;;;;;;13.54;90.91;100283.75;1723125;80;27514;-66
2022/06/21 07:27:36;;;;;;;3.77;2.40;;;;;;;13.60;90.89;100281.16;1718851;80;26336;-65
2022/06/21 07:30:08;;;;;;;2.65;2.40;;;;;;;13.67;90.70;100281.66;1719199;80;98660;-65
2022/06/21 07:32:54;;;;;;;6.80;2.58;;;;;;;13.75;90.34;100283.39;1721464;80;25986;-65
2022/06/21 07:35:36;;;;;;;4.53;2.40;;;;;;;13.78;90.29;100289.94;1708999;80;98876;-65
2022/06/21 07:38:33;;;;;;;3.72;2.02;;;;;;;13.73;90.14;100301.00;1722614;80;28109;-65
2022/06/21 07:41:08;;;;;;;3.42;2.15;;;;;;;13.68;90.34;100291.47;1723598;80;98566;-65
2022/06/21 07:43:45;;;;;;;4.05;2.33;;;;;;;13.76;89.70;100287.81;1707579;79;25861;-65
2022/06/21 07:46:19;;;;;;;2.95;2.20;;;;;;;13.84;89.01;100283.69;1715251;80;98892;-65
2022/06/21 07:49:41;;;;;;;5.53;2.95;;;;;;;13.83;88.40;100305.33;1722509;80;25827;-65
2022/06/21 07:52:15;;;;;;;11.75;2.67;;;;;;;13.86;87.84;100295.23;1720556;80;98980;-65
2022/06/21 07:54:47;;;;;;;6.67;2.00;;;;;;;13.84;86.94;100301.67;1728176;80;26137;-65
2022/06/21 07:57:18;;;;;;;6.67;2.22;;;;;;;13.78;86.53;100306.96;1710651;80;26030;-65
2022/06/21 07:59:49;;;;;;;2.95;1.92;;;;;;;13.86;86.75;100314.57;1713739;80;98781;-65
2022/06/21 08:08:36;;;;;;;3.00;1.57;;;;;;;13.85;85.66;100321.78;1707620;81;25840;-65
2022/06/21 08:11:27;;;;;;;5.92;1.62;;;;;;;13.92;85.56;100326.31;1712257;80;98637;-65
2022/06/21 08:13:54;;;;;;;2.92;2.02;;;;;;;14.04;85.79;100335.46;1706283;80;26076;-65
2022/06/21 08:16:34;;;;;;;5.87;2.58;;;;;;;14.18;85.79;100341.72;1712304;81;98896;-66
2022/06/21 08:19:27;;;;;;;6.25;1.80;;;;;;;14.28;85.43;100327.17;1711826;80;28314;-65
2022/06/21 08:22:02;;;;;;;12.07;1.87;;;;;;;14.33;84.23;100326.88;1696764;82;98990;-65
2022/06/21 08:24:53;;;;;;;3.50;1.60;;;;;;;14.38;84.11;100328.32;1694331;81;26221;-65
2022/06/21 08:27:28;;;;;;;3.95;2.25;;;;;;;14.42;84.33;100337.98;1694765;81;26090;-66
2022/06/21 08:30:26;;;;;;;2.83;1.70;;;;;;;14.45;84.60;100337.78;1697143;81;98791;-66
2022/06/21 08:33:10;;;;;;;5.28;1.80;;;;;;;14.59;84.10;100339.11;1691720;82;29053;-64
2022/06/21 08:35:44;;;;;;;4.47;2.00;;;;;;;14.52;84.20;100343.65;1713326;80;98693;-67
2022/06/21 08:38:22;;;;;;;4.97;1.55;;;;;;;14.63;84.33;100356.44;1693188;82;25806;-65
2022/06/21 08:41:59;;;;;;;7.17;1.82;;;;;;;14.67;83.77;100355.28;1702190;82;98646;-65
2022/06/21 08:48:45;;;;;;;3.83;1.67;;;;;;;14.65;83.28;100355.86;1694054;81;99592;-65
2022/06/21 08:51:48;;;;;;;7.75;2.05;;;;;;;14.71;82.87;100352.77;1693018;82;26332;-65
2022/06/21 08:54:40;;;;;;;2.87;1.50;;;;;;;14.69;82.66;100353.34;1716495;80;98557;-65
2022/06/21 08:57:44;;;;;;;7.33;1.42;;;;;;;14.80;82.75;100354.86;1727911;80;26112;-67
2022/06/21 09:00:36;;;;;;;4.47;1.67;;;;;;;14.98;82.67;100367.15;1719400;80;98448;-66
2022/06/21 09:03:13;;;;;;;5.00;1.60;;;;;;;14.95;82.23;100371.40;1725369;80;28148;-65
2022/06/21 09:05:57;;;;;;;6.87;1.90;;;;;;;14.88;81.75;100358.79;1720913;80;98710;-65
2022/06/21 09:08:35;;;;;;;1.95;1.47;;;;;;;15.00;82.09;100359.81;1703896;81;25781;-66
2022/06/21 09:11:50;;;;;;;6.10;1.90;;;;;;;15.14;82.25;100362.47;1722671;80;98720;-65
2022/06/21 09:15:06;;;;;;;4.00;1.60;;;;;;;15.06;81.27;100359.41;1717584;81;25782;-65
2022/06/21 09:17:56;;;;;;;6.03;1.45;;;;;;;15.08;81.74;100362.87;1733597;80;98774;-65
2022/06/21 09:21:09;;;;;;;2.75;1.35;;;;;;;15.12;81.43;100364.89;1724204;80;25890;-65
2022/06/21 09:24:23;;;;;;;2.55;1.40;;;;;;;15.17;81.51;100367.66;1716593;81;97958;-66
2022/06/21 09:27:03;;;;;;;5.03;1.55;;;;;;;15.31;81.65;100353.72;1722202;81;26024;-66
2022/06/21 09:29:52;;;;;;;4.28;1.20;;;;;;;15.55;81.43;100358.80;1694295;81;98742;-65
2022/06/21 09:32:44;;;;;;;11.85;2.08;;;;;;;15.78;80.75;100368.89;1706577;82;27467;-65
2022/06/21 09:35:47;;;;;;;6.55;1.50;;;;;;;15.83;80.54;100374.84;1713717;81;98905;-66
2022/06/21 09:38:22;;;;;;;4.55;1.40;;;;;;;15.89;80.72;100355.98;1722378;81;25668;-65
2022/06/21 09:41:25;;;;;;;2.22;1.52;;;;;;;16.02;80.40;100360.05;1703752;81;98785;-65
2022/06/21 09:44:22;;;;;;;4.22;1.07;;;;;;;16.01;79.16;100361.02;1662033;81;25913;-65
2022/06/21 09:47:17;;;;;;;1.87;0.82;;;;;;;16.02;78.28;100354.64;1727678;81;97838;-65
2022/06/21 09:50:12;;;;;;;9.40;1.70;;;;;;;16.23;78.53;100351.28;1717164;80;25725;-65
2022/06/21 09:53:06;;;;;;;5.10;1.15;;;;;;;16.46;78.23;100351.47;1764664;79;98990;-66
2022/06/21 09:56:06;;;;;;;2.17;1.20;;;;;;;16.40;76.45;100355.97;1747515;79;26690;-66
2022/06/21 09:59:16;;;;;;;4.97;1.52;;;;;;;16.20;76.24;100349.28;1744096;79;98884;-66
2022/06/21 10:01:59;;;;;;;5.17;1.60;;;;;;;15.95;76.25;100354.20;1744167;79;27413;-66
2022/06/21 10:04:45;;;;;;;2.27;1.50;;;;;;;15.85;76.59;100355.34;1754655;79;99303;-67
2022/06/21 10:07:17;;;;;;;3.10;1.85;;;;;;;15.95;76.93;100351.50;1758291;79;26513;-65
2022/06/21 10:10:13;;;;;;;3.17;1.80;;;;;;;16.10;76.79;100354.97;1748157;79;26108;-67
2022/06/21 10:13:16;;;;;;;6.10;1.42;;;;;;;16.31;76.73;100343.97;1755188;79;26424;-66
2022/06/21 10:16:07;;;;;;;4.62;1.62;;;;;;;16.43;75.90;100337.67;1753289;79;27509;-66
2022/06/21 10:18:54;;;;;;;2.52;1.35;;;;;;;16.50;76.31;100344.38;1754908;78;98764;-66
2022/06/21 10:21:56;;;;;;;4.45;1.27;;;;;;;16.58;75.77;100345.16;1751256;79;25831;-67
2022/06/21 10:24:33;;;;;;;2.65;1.75;;;;;;;16.81;74.75;100362.46;1752882;79;98885;-67
2022/06/21 10:27:05;;;;;;;1.85;1.05;;;;;;;16.78;73.42;100353.21;1757222;79;26048;-67
2022/06/21 10:29:55;;;;;;;2.65;1.40;;;;;;;16.77;73.25;100346.94;1750497;78;98801;-66
2022/06/21 10:32:46;;;;;;;7.03;1.65;;;;;;;16.93;73.67;100354.78;1673986;83;25907;-66
2022/06/21 10:35:30;;;;;;;7.67;1.40;;;;;;;17.22;73.18;100355.31;1747683;79;98735;-66
2022/06/21 10:38:11;;;;;;;8.30;1.62;;;;;;;17.37;71.73;100360.06;1742891;79;26828;-66
2022/06/21 10:40:45;;;;;;;4.47;1.95;;;;;;;17.27;72.63;100367.16;1751665;79;98918;-66
2022/06/21 10:43:57;;;;;;;5.12;1.40;;;;;;;17.38;72.02;100360.43;1754820;79;27460;-67
2022/06/21 10:46:38;;;;;;;;;;;;;;;17.50;72.27;100354.94;1747469;79;98811;-67
2022/06/21 10:49:16;;;;;;;6.55;1.82;;;;;;;17.71;72.19;100366.01;1743395;79;25865;-67
2022/06/21 10:52:13;;;;;;;2.87;1.50;;;;;;;17.77;71.82;100364.67;1744861;79;26027;-67
2022/06/21 10:55:06;;;;;;;4.08;1.50;;;;;;;17.56;70.66;100364.45;1746059;79;97820;-66
2022/06/21 10:57:56;;;;;;;9.60;2.33;;;;;;;17.30;69.12;100366.43;1751393;78;27575;-67
2022/06/21 11:04:04;;;;;;;5.03;2.25;;;;;;;17.01;70.18;100377.23;1754995;79;26512;-67
2022/06/21 11:07:03;;;;;;;4.75;2.22;;;;;;;16.90;70.20;100363.13;1770506;79;98648;-67
2022/06/21 11:09:47;;;;;;;3.72;2.17;;;;;;;16.96;70.58;100355.91;1755882;79;25756;-66
2022/06/21 11:15:44;;;;;;;3.37;1.80;;;;;;;17.32;69.83;100353.63;1754388;79;27142;-69
2022/06/21 11:18:48;;;;;;;4.47;2.22;;;;;;;17.53;69.82;100364.68;1759138;79;98688;-67
2022/06/21 11:21:46;;;;;;;5.28;1.92;;;;;;;17.78;69.62;100359.13;1749155;79;26268;-67
2022/06/21 11:24:38;;;;;;;5.75;2.30;;;;;;;17.94;69.38;100357.94;1747084;79;98659;-68
2022/06/21 11:27:13;;;;;;;4.42;2.00;;;;;;;18.12;69.32;100365.48;1746777;79;27424;-69
2022/06/21 11:29:57;;;;;;;6.03;1.72;;;;;;;18.10;65.04;100355.25;1746256;78;98810;-68
2022/06/21 11:32:43;;;;;;;8.40;2.05;;;;;;;18.10;65.04;100355.25;1765589;79;25836;-68
2022/06/21 11:35:34;;;;;;;5.03;1.40;;;;;;;17.89;65.77;100361.00;1727133;79;98759;-67
2022/06/21 11:38:51;;;;;;;2.12;1.12;;;;;;;17.50;65.94;100394.23;1748586;79;25788;-67
2022/06/21 11:44:32;;;;;;;2.98;1.70;;;;;;;17.39;66.79;100386.55;1754558;79;25744;-68
2022/06/21 11:47:35;;;;;;;7.37;2.95;;;;;;;17.39;67.57;100379.77;1750496;79;98915;-67
2022/06/21 11:50:30;;;;;;;8.48;2.30;;;;;;;17.55;68.02;100379.47;1752835;79;26705;-67
2022/06/21 11:53:55;;;;;;;3.22;1.60;;;;;;;17.90;68.19;100383.56;1748810;79;98929;-67
2022/06/21 11:56:27;;;;;;;7.03;1.80;;;;;;;18.03;67.50;100386.55;1739607;79;27444;-67
2022/06/21 11:59:23;;;;;;;10.03;1.70;;;;;;;18.01;67.81;100397.14;1752738;79;99202;-67
2022/06/21 12:02:03;;;;;;;7.10;1.82;;;;;;;17.91;67.50;100378.51;1754881;79;26062;-66
2022/06/21 12:05:03;;;;;;;9.53;1.95;;;;;;;18.08;67.56;100373.98;1759137;79;98920;-66
2022/06/21 12:08:03;;;;;;;2.15;1.32;;;;;;;18.41;67.33;100385.33;1746017;79;25866;-67
2022/06/21 12:10:43;;;;;;;4.80;1.65;;;;;;;18.73;66.73;100371.91;1752469;79;98771;-66
2022/06/21 12:13:18;;;;;;;11.47;1.93;;;;;;;19.04;66.05;100356.67;1752009;79;26657;-68
2022/06/21 12:16:01;;;;;;;2.62;1.12;;;;;;;19.14;64.08;100369.36;1741865;79;26214;-67
2022/06/21 12:18:32;;;;;;;4.28;1.52;;;;;;;19.07;64.36;100372.22;1758290;79;98687;-67
2022/06/21 12:21:06;;;;;;;4.30;1.20;;;;;;;19.14;63.76;100389.73;1758739;79;25805;-68
2022/06/21 12:23:49;;;;;;;3.62;1.92;;;;;;;19.18;64.29;100374.53;1743861;79;98715;-67
2022/06/21 12:26:23;;;;;;;4.00;1.80;;;;;;;19.42;63.94;100406.45;1742709;79;25771;-67
2022/06/21 12:28:52;;;;;;;3.22;1.12;;;;;;;19.48;63.31;100369.24;1749495;79;98815;-67
2022/06/21 12:31:28;;;;;;;4.05;1.20;;;;;;;19.69;63.20;100382.40;1753370;79;26667;-67
2022/06/21 12:34:07;;;;;;;5.62;1.20;;;;;;;19.68;61.24;100368.94;1747663;79;26147;-67
2022/06/21 12:36:57;;;;;;;1.95;1.42;;;;;;;19.60;60.44;100380.47;1731700;81;98616;-67
2022/06/21 12:39:40;;;;;;;4.58;1.20;;;;;;;19.42;60.04;100376.06;1758347;79;27187;-67
2022/06/21 12:42:37;;;;;;;3.22;1.10;;;;;;;19.13;60.58;100369.48;1755215;79;98773;-68
2022/06/21 12:45:16;;;;;;;5.12;1.00;;;;;;;19.26;58.97;100377.47;1750332;79;26127;-67
2022/06/21 12:48:21;;;;;;;;;;;;;;;19.33;59.19;100360.52;1754073;79;98780;-68
2022/06/21 12:50:55;;;;;;;2.20;1.22;;;;;;;19.26;58.88;100363.39;1757444;79;26720;-66
2022/06/21 12:53:58;;;;;;;3.47;1.65;;;;;;;19.18;58.80;100369.96;1745779;79;98692;-66